Anson, Texas
Current Conditions -  °F | °C
As of 6:58 PM on Saturday 25 Oct 2014 (Local Time) from KDYS Reporting Station
Clear Clear  
Wind Chill: 80°   Ceiling: Unl
Heat Index: 80°   Visibility: 10mi
Dew Point: 53°   Wind: 6mph
Humidity: 39%   Direction: 170°S
Pressure: 30.06"   Gusts: NA
Location:  32.76°N, 99.9°W
Report Text: KDYS 252358Z AUTO 17005KT 10SM CLR 27/12 A3006 RMK AO2 SLP142 T02670115 10318 20267 57006 $
Loading
Personal Weather Stations






























Interactive Weather Map
Tropical Storm Tracking
New forecast layout! Learn more

10-Day Weather Forecast

Advertisements
Track Severe Weather on mobile